sensor_id;sensor_type;location;lat;lon;timestamp;noise_LAeq;noise_LA_min;noise_LA_max;noise_LA01;noise_LA95
76338;Laerm;20358;50.272;19.026;2024-02-14T00:00:25;43.17;35.71;58.44;;
76338;Laerm;20358;50.272;19.026;2024-02-14T00:03:32;43.24;35.53;62.91;;
76338;Laerm;20358;50.272;19.026;2024-02-14T00:06:42;41.08;35.65;56.26;;
76338;Laerm;20358;50.272;19.026;2024-02-14T00:09:50;40.46;35.67;53.21;;
76338;Laerm;20358;50.272;19.026;2024-02-14T00:12:58;41.92;35.76;56.34;;
76338;Laerm;20358;50.272;19.026;2024-02-14T00:16:09;49.79;36.55;59.86;;
76338;Laerm;20358;50.272;19.026;2024-02-14T00:19:17;45.50;38.91;56.05;;
76338;Laerm;20358;50.272;19.026;2024-02-14T00:22:25;53.71;38.71;72.37;;
76338;Laerm;20358;50.272;19.026;2024-02-14T00:25:41;41.86;37.53;54.85;;
76338;Laerm;20358;50.272;19.026;2024-02-14T00:29:27;43.91;37.47;61.78;;
76338;Laerm;20358;50.272;19.026;2024-02-14T00:33:41;41.39;35.84;59.15;;
76338;Laerm;20358;50.272;19.026;2024-02-14T00:37:28;42.48;36.32;51.77;;
76338;Laerm;20358;50.272;19.026;2024-02-14T00:41:22;43.40;36.13;62.22;;
76338;Laerm;20358;50.272;19.026;2024-02-14T00:44:53;40.58;35.89;56.05;;
76338;Laerm;20358;50.272;19.026;2024-02-14T00:48:55;41.46;35.41;59.58;;
76338;Laerm;20358;50.272;19.026;2024-02-14T00:53:05;42.80;35.16;60.06;;
76338;Laerm;20358;50.272;19.026;2024-02-14T00:56:56;42.87;35.17;55.71;;
76338;Laerm;20358;50.272;19.026;2024-02-14T01:04:40;40.96;34.79;53.56;;
76338;Laerm;20358;50.272;19.026;2024-02-14T01:12:48;40.31;34.88;52.37;;
76338;Laerm;20358;50.272;19.026;2024-02-14T01:16:48;39.26;34.81;55.52;;
76338;Laerm;20358;50.272;19.026;2024-02-14T01:24:48;40.93;35.28;56.68;;
76338;Laerm;20358;50.272;19.026;2024-02-14T01:28:03;38.53;34.81;53.23;;
76338;Laerm;20358;50.272;19.026;2024-02-14T01:31:12;40.35;34.91;57.12;;
76338;Laerm;20358;50.272;19.026;2024-02-14T01:34:22;37.76;34.62;48.98;;
76338;Laerm;20358;50.272;19.026;2024-02-14T01:37:32;40.21;34.49;50.65;;
76338;Laerm;20358;50.272;19.026;2024-02-14T01:40:43;36.83;34.33;41.31;;
76338;Laerm;20358;50.272;19.026;2024-02-14T01:43:51;38.50;34.77;41.64;;
76338;Laerm;20358;50.272;19.026;2024-02-14T01:47:01;41.88;34.87;59.21;;
76338;Laerm;20358;50.272;19.026;2024-02-14T01:50:10;40.78;34.53;55.13;;
76338;Laerm;20358;50.272;19.026;2024-02-14T01:53:22;41.74;35.07;58.73;;
76338;Laerm;20358;50.272;19.026;2024-02-14T01:56:31;36.65;33.96;41.32;;
76338;Laerm;20358;50.272;19.026;2024-02-14T01:59:40;43.04;34.16;59.49;;
76338;Laerm;20358;50.272;19.026;2024-02-14T02:02:48;41.61;34.45;57.82;;
76338;Laerm;20358;50.272;19.026;2024-02-14T02:05:57;41.47;34.46;57.99;;
76338;Laerm;20358;50.272;19.026;2024-02-14T02:09:08;39.57;34.66;51.00;;
76338;Laerm;20358;50.272;19.026;2024-02-14T02:12:17;39.60;34.60;56.26;;
76338;Laerm;20358;50.272;19.026;2024-02-14T02:15:24;43.03;35.15;57.38;;
76338;Laerm;20358;50.272;19.026;2024-02-14T02:18:33;39.17;34.64;58.58;;
76338;Laerm;20358;50.272;19.026;2024-02-14T02:21:43;40.26;34.11;54.96;;
76338;Laerm;20358;50.272;19.026;2024-02-14T02:24:54;40.37;34.51;53.69;;
76338;Laerm;20358;50.272;19.026;2024-02-14T02:28:04;41.28;34.58;57.40;;
76338;Laerm;20358;50.272;19.026;2024-02-14T02:31:14;41.88;35.25;61.33;;
76338;Laerm;20358;50.272;19.026;2024-02-14T02:34:21;40.84;34.85;57.73;;
76338;Laerm;20358;50.272;19.026;2024-02-14T02:37:31;40.25;34.72;60.57;;
76338;Laerm;20358;50.272;19.026;2024-02-14T02:40:41;40.19;35.00;54.59;;
76338;Laerm;20358;50.272;19.026;2024-02-14T02:43:50;40.57;34.75;60.60;;
76338;Laerm;20358;50.272;19.026;2024-02-14T02:46:59;39.81;34.36;49.23;;
76338;Laerm;20358;50.272;19.026;2024-02-14T02:50:08;43.35;34.67;60.98;;
76338;Laerm;20358;50.272;19.026;2024-02-14T02:53:17;41.54;34.61;58.37;;
76338;Laerm;20358;50.272;19.026;2024-02-14T02:56:27;41.49;34.36;53.18;;
76338;Laerm;20358;50.272;19.026;2024-02-14T02:59:36;38.32;34.94;49.22;;
76338;Laerm;20358;50.272;19.026;2024-02-14T03:02:47;38.76;34.62;52.63;;
76338;Laerm;20358;50.272;19.026;2024-02-14T03:05:56;42.39;35.39;55.07;;
76338;Laerm;20358;50.272;19.026;2024-02-14T03:09:04;41.50;35.20;56.32;;
76338;Laerm;20358;50.272;19.026;2024-02-14T03:16:56;43.89;34.93;59.15;;
76338;Laerm;20358;50.272;19.026;2024-02-14T03:25:29;42.73;36.03;54.00;;
76338;Laerm;20358;50.272;19.026;2024-02-14T03:29:44;45.88;35.40;67.38;;
76338;Laerm;20358;50.272;19.026;2024-02-14T03:38:24;42.86;35.22;55.52;;
76338;Laerm;20358;50.272;19.026;2024-02-14T03:42:27;46.64;36.19;64.01;;
76338;Laerm;20358;50.272;19.026;2024-02-14T03:46:39;43.74;36.51;58.11;;
76338;Laerm;20358;50.272;19.026;2024-02-14T03:50:49;45.65;36.97;59.33;;
76338;Laerm;20358;50.272;19.026;2024-02-14T04:07:33;45.27;37.75;59.46;;
76338;Laerm;20358;50.272;19.026;2024-02-14T04:11:24;47.05;38.19;59.40;;
76338;Laerm;20358;50.272;19.026;2024-02-14T04:15:10;49.81;37.15;64.19;;
76338;Laerm;20358;50.272;19.026;2024-02-14T04:19:20;46.01;37.75;57.95;;
76338;Laerm;20358;50.272;19.026;2024-02-14T04:28:02;48.60;38.75;60.51;;
76338;Laerm;20358;50.272;19.026;2024-02-14T04:32:20;48.18;37.97;60.98;;
76338;Laerm;20358;50.272;19.026;2024-02-14T04:36:30;49.73;40.70;64.79;;
76338;Laerm;20358;50.272;19.026;2024-02-14T04:40:13;50.86;40.57;60.91;;
76338;Laerm;20358;50.272;19.026;2024-02-14T04:43:43;49.85;40.46;60.86;;
76338;Laerm;20358;50.272;19.026;2024-02-14T04:46:50;49.20;39.68;61.13;;
76338;Laerm;20358;50.272;19.026;2024-02-14T04:49:58;51.30;41.87;59.95;;
76338;Laerm;20358;50.272;19.026;2024-02-14T04:53:08;52.47;40.89;66.89;;
76338;Laerm;20358;50.272;19.026;2024-02-14T04:56:19;57.21;42.72;76.29;;
76338;Laerm;20358;50.272;19.026;2024-02-14T04:59:27;50.06;39.54;64.96;;
76338;Laerm;20358;50.272;19.026;2024-02-14T05:02:38;50.23;40.21;61.27;;
76338;Laerm;20358;50.272;19.026;2024-02-14T05:06:00;50.17;40.57;60.98;;
76338;Laerm;20358;50.272;19.026;2024-02-14T05:09:35;51.60;42.19;69.87;;
76338;Laerm;20358;50.272;19.026;2024-02-14T05:13:06;51.83;42.11;66.81;;
76338;Laerm;20358;50.272;19.026;2024-02-14T05:16:41;50.35;40.86;61.58;;
76338;Laerm;20358;50.272;19.026;2024-02-14T05:20:01;51.63;41.53;64.51;;
76338;Laerm;20358;50.272;19.026;2024-02-14T05:23:47;53.35;44.99;68.66;;
76338;Laerm;20358;50.272;19.026;2024-02-14T05:27:04;50.35;42.23;62.84;;
76338;Laerm;20358;50.272;19.026;2024-02-14T05:30:17;52.36;44.37;71.34;;
76338;Laerm;20358;50.272;19.026;2024-02-14T05:33:44;50.53;43.73;65.90;;
76338;Laerm;20358;50.272;19.026;2024-02-14T05:37:19;54.64;47.99;71.53;;
76338;Laerm;20358;50.272;19.026;2024-02-14T05:40:28;54.32;47.34;70.60;;
76338;Laerm;20358;50.272;19.026;2024-02-14T05:43:35;53.54;46.07;68.57;;
76338;Laerm;20358;50.272;19.026;2024-02-14T05:46:45;52.64;44.13;67.71;;
76338;Laerm;20358;50.272;19.026;2024-02-14T05:49:52;52.75;43.34;63.03;;
76338;Laerm;20358;50.272;19.026;2024-02-14T05:53:00;52.68;43.91;70.40;;
76338;Laerm;20358;50.272;19.026;2024-02-14T05:56:07;53.61;44.12;68.25;;
76338;Laerm;20358;50.272;19.026;2024-02-14T05:59:27;52.76;43.73;61.10;;
76338;Laerm;20358;50.272;19.026;2024-02-14T06:03:29;53.05;44.76;62.38;;
76338;Laerm;20358;50.272;19.026;2024-02-14T06:07:46;54.25;44.06;62.83;;
76338;Laerm;20358;50.272;19.026;2024-02-14T06:16:17;53.25;44.08;68.59;;
76338;Laerm;20358;50.272;19.026;2024-02-14T06:19:55;53.42;44.64;67.60;;
76338;Laerm;20358;50.272;19.026;2024-02-14T06:23:26;53.75;45.56;68.81;;
76338;Laerm;20358;50.272;19.026;2024-02-14T06:27:01;53.68;43.88;67.00;;
76338;Laerm;20358;50.272;19.026;2024-02-14T06:30:19;52.94;43.36;70.60;;
76338;Laerm;20358;50.272;19.026;2024-02-14T06:33:40;52.81;44.30;75.17;;
76338;Laerm;20358;50.272;19.026;2024-02-14T06:37:11;52.98;44.76;60.63;;
76338;Laerm;20358;50.272;19.026;2024-02-14T06:40:49;52.19;44.89;65.21;;
76338;Laerm;20358;50.272;19.026;2024-02-14T06:44:17;54.10;44.92;66.37;;
76338;Laerm;20358;50.272;19.026;2024-02-14T06:47:32;53.17;45.53;64.98;;
76338;Laerm;20358;50.272;19.026;2024-02-14T06:50:47;54.22;45.49;65.04;;
76338;Laerm;20358;50.272;19.026;2024-02-14T06:54:18;52.97;44.22;67.13;;
76338;Laerm;20358;50.272;19.026;2024-02-14T06:57:35;54.89;44.37;69.23;;
76338;Laerm;20358;50.272;19.026;2024-02-14T07:00:42;53.48;43.24;66.95;;
76338;Laerm;20358;50.272;19.026;2024-02-14T07:03:50;51.76;42.81;65.06;;
76338;Laerm;20358;50.272;19.026;2024-02-14T07:06:57;53.03;43.52;63.97;;
76338;Laerm;20358;50.272;19.026;2024-02-14T07:10:10;52.30;43.92;63.83;;
76338;Laerm;20358;50.272;19.026;2024-02-14T07:13:16;53.91;44.96;76.89;;
76338;Laerm;20358;50.272;19.026;2024-02-14T07:16:24;53.74;44.40;67.41;;
76338;Laerm;20358;50.272;19.026;2024-02-14T07:19:30;53.95;43.56;63.55;;
76338;Laerm;20358;50.272;19.026;2024-02-14T07:22:38;52.68;44.71;62.52;;
76338;Laerm;20358;50.272;19.026;2024-02-14T07:25:47;54.46;45.07;66.79;;
76338;Laerm;20358;50.272;19.026;2024-02-14T07:28:56;52.46;42.21;63.80;;
76338;Laerm;20358;50.272;19.026;2024-02-14T07:32:08;53.87;45.33;66.86;;
76338;Laerm;20358;50.272;19.026;2024-02-14T07:35:16;53.51;44.91;69.52;;
76338;Laerm;20358;50.272;19.026;2024-02-14T07:38:24;52.88;44.12;68.36;;
76338;Laerm;20358;50.272;19.026;2024-02-14T07:41:34;52.32;43.37;68.68;;
76338;Laerm;20358;50.272;19.026;2024-02-14T07:44:40;52.86;43.23;60.34;;
76338;Laerm;20358;50.272;19.026;2024-02-14T07:47:50;52.51;42.72;65.65;;
76338;Laerm;20358;50.272;19.026;2024-02-14T07:50:56;54.44;42.27;67.30;;
76338;Laerm;20358;50.272;19.026;2024-02-14T07:54:05;53.04;44.33;67.33;;
76338;Laerm;20358;50.272;19.026;2024-02-14T07:57:14;54.82;46.50;71.29;;
76338;Laerm;20358;50.272;19.026;2024-02-14T08:00:22;53.33;43.23;67.89;;
76338;Laerm;20358;50.272;19.026;2024-02-14T08:03:29;52.97;43.12;65.98;;
76338;Laerm;20358;50.272;19.026;2024-02-14T08:06:37;53.23;44.53;74.61;;
76338;Laerm;20358;50.272;19.026;2024-02-14T08:09:43;51.92;41.40;67.44;;
76338;Laerm;20358;50.272;19.026;2024-02-14T08:12:53;53.00;42.13;62.78;;
76338;Laerm;20358;50.272;19.026;2024-02-14T08:16:00;52.46;40.05;63.43;;
76338;Laerm;20358;50.272;19.026;2024-02-14T08:19:08;55.39;43.20;64.17;;
76338;Laerm;20358;50.272;19.026;2024-02-14T08:22:15;52.93;40.87;74.66;;
76338;Laerm;20358;50.272;19.026;2024-02-14T08:25:25;51.75;40.30;62.45;;
76338;Laerm;20358;50.272;19.026;2024-02-14T08:28:35;51.23;41.14;60.14;;
76338;Laerm;20358;50.272;19.026;2024-02-14T08:31:42;52.30;44.00;61.94;;
76338;Laerm;20358;50.272;19.026;2024-02-14T08:34:49;52.27;45.01;62.25;;
76338;Laerm;20358;50.272;19.026;2024-02-14T08:37:57;51.77;43.24;62.76;;
76338;Laerm;20358;50.272;19.026;2024-02-14T08:41:09;52.33;42.27;62.20;;
76338;Laerm;20358;50.272;19.026;2024-02-14T08:44:20;52.51;41.55;60.09;;
76338;Laerm;20358;50.272;19.026;2024-02-14T08:47:27;51.96;44.10;61.51;;
76338;Laerm;20358;50.272;19.026;2024-02-14T08:50:35;52.12;43.38;62.00;;
76338;Laerm;20358;50.272;19.026;2024-02-14T08:53:42;51.43;40.10;63.54;;
76338;Laerm;20358;50.272;19.026;2024-02-14T08:56:50;52.12;42.12;66.85;;
76338;Laerm;20358;50.272;19.026;2024-02-14T09:00:05;52.56;43.28;67.52;;
76338;Laerm;20358;50.272;19.026;2024-02-14T09:03:15;51.43;40.82;61.51;;
76338;Laerm;20358;50.272;19.026;2024-02-14T09:06:22;53.38;40.71;69.83;;
76338;Laerm;20358;50.272;19.026;2024-02-14T09:09:33;51.18;41.03;63.20;;
76338;Laerm;20358;50.272;19.026;2024-02-14T09:12:41;51.28;40.41;61.33;;
76338;Laerm;20358;50.272;19.026;2024-02-14T09:15:51;50.99;40.56;61.13;;
76338;Laerm;20358;50.272;19.026;2024-02-14T09:18:57;51.12;40.86;61.41;;
76338;Laerm;20358;50.272;19.026;2024-02-14T09:22:05;51.66;41.37;64.67;;
76338;Laerm;20358;50.272;19.026;2024-02-14T09:25:11;51.25;39.63;64.08;;
76338;Laerm;20358;50.272;19.026;2024-02-14T09:28:21;52.44;44.50;61.50;;
76338;Laerm;20358;50.272;19.026;2024-02-14T09:31:31;51.33;40.16;61.88;;
76338;Laerm;20358;50.272;19.026;2024-02-14T09:34:38;51.89;42.97;61.85;;
76338;Laerm;20358;50.272;19.026;2024-02-14T09:37:45;51.63;39.38;63.12;;
76338;Laerm;20358;50.272;19.026;2024-02-14T09:40:58;51.66;41.07;62.48;;
76338;Laerm;20358;50.272;19.026;2024-02-14T09:44:09;50.51;42.90;60.45;;
76338;Laerm;20358;50.272;19.026;2024-02-14T09:47:20;50.47;42.01;61.93;;
76338;Laerm;20358;50.272;19.026;2024-02-14T09:50:31;51.29;40.08;61.90;;
76338;Laerm;20358;50.272;19.026;2024-02-14T09:53:41;51.92;42.08;63.54;;
76338;Laerm;20358;50.272;19.026;2024-02-14T09:56:50;52.26;40.32;67.32;;
76338;Laerm;20358;50.272;19.026;2024-02-14T10:00:10;52.65;41.24;68.52;;
76338;Laerm;20358;50.272;19.026;2024-02-14T10:03:20;51.45;42.53;62.34;;
76338;Laerm;20358;50.272;19.026;2024-02-14T10:06:32;51.36;42.09;62.07;;
76338;Laerm;20358;50.272;19.026;2024-02-14T10:09:41;52.97;41.05;63.94;;
76338;Laerm;20358;50.272;19.026;2024-02-14T10:12:49;53.39;43.46;68.13;;
76338;Laerm;20358;50.272;19.026;2024-02-14T10:15:57;51.32;42.92;62.85;;
76338;Laerm;20358;50.272;19.026;2024-02-14T10:19:15;51.07;40.54;62.85;;
76338;Laerm;20358;50.272;19.026;2024-02-14T10:22:22;51.42;42.49;61.69;;
76338;Laerm;20358;50.272;19.026;2024-02-14T10:25:29;51.59;42.28;63.50;;
76338;Laerm;20358;50.272;19.026;2024-02-14T10:28:36;52.92;42.32;62.47;;
76338;Laerm;20358;50.272;19.026;2024-02-14T10:31:47;51.02;40.59;59.05;;
76338;Laerm;20358;50.272;19.026;2024-02-14T10:34:57;51.41;39.67;60.66;;
76338;Laerm;20358;50.272;19.026;2024-02-14T10:38:07;52.00;41.86;60.62;;
76338;Laerm;20358;50.272;19.026;2024-02-14T10:41:15;54.77;42.09;73.55;;
76338;Laerm;20358;50.272;19.026;2024-02-14T10:44:23;51.38;41.91;61.69;;
76338;Laerm;20358;50.272;19.026;2024-02-14T10:47:32;51.83;43.53;63.94;;
76338;Laerm;20358;50.272;19.026;2024-02-14T10:50:47;52.74;43.14;61.81;;
76338;Laerm;20358;50.272;19.026;2024-02-14T10:53:57;51.49;42.73;60.78;;
76338;Laerm;20358;50.272;19.026;2024-02-14T10:57:08;52.09;43.63;61.63;;
76338;Laerm;20358;50.272;19.026;2024-02-14T11:00:18;51.74;42.98;67.52;;
76338;Laerm;20358;50.272;19.026;2024-02-14T11:03:27;51.34;42.59;60.74;;
76338;Laerm;20358;50.272;19.026;2024-02-14T11:06:47;51.86;42.85;60.91;;
76338;Laerm;20358;50.272;19.026;2024-02-14T11:10:05;52.89;44.01;65.00;;
76338;Laerm;20358;50.272;19.026;2024-02-14T11:13:13;51.84;40.16;68.40;;
76338;Laerm;20358;50.272;19.026;2024-02-14T11:16:25;52.16;41.04;64.50;;
76338;Laerm;20358;50.272;19.026;2024-02-14T11:19:34;53.53;43.53;63.09;;
76338;Laerm;20358;50.272;19.026;2024-02-14T11:22:53;53.76;45.16;69.44;;
76338;Laerm;20358;50.272;19.026;2024-02-14T11:26:03;50.54;43.14;62.35;;
76338;Laerm;20358;50.272;19.026;2024-02-14T11:29:14;52.37;45.25;65.87;;
76338;Laerm;20358;50.272;19.026;2024-02-14T11:32:28;50.78;41.75;68.22;;
76338;Laerm;20358;50.272;19.026;2024-02-14T11:35:38;51.95;43.47;65.27;;
76338;Laerm;20358;50.272;19.026;2024-02-14T11:38:48;52.06;43.65;62.73;;
76338;Laerm;20358;50.272;19.026;2024-02-14T11:41:59;52.42;43.22;68.03;;
76338;Laerm;20358;50.272;19.026;2024-02-14T11:45:07;51.84;43.99;66.77;;
76338;Laerm;20358;50.272;19.026;2024-02-14T11:48:17;51.35;42.77;60.79;;
76338;Laerm;20358;50.272;19.026;2024-02-14T11:51:24;52.28;43.99;61.02;;
76338;Laerm;20358;50.272;19.026;2024-02-14T11:54:35;52.07;42.34;69.07;;
76338;Laerm;20358;50.272;19.026;2024-02-14T11:57:41;53.19;45.40;61.25;;
76338;Laerm;20358;50.272;19.026;2024-02-14T12:00:50;52.48;42.12;63.79;;
76338;Laerm;20358;50.272;19.026;2024-02-14T12:03:57;52.10;44.52;61.25;;
76338;Laerm;20358;50.272;19.026;2024-02-14T12:07:06;53.31;44.04;63.61;;
76338;Laerm;20358;50.272;19.026;2024-02-14T12:10:16;52.09;42.87;61.67;;
76338;Laerm;20358;50.272;19.026;2024-02-14T12:13:26;51.64;43.26;62.32;;
76338;Laerm;20358;50.272;19.026;2024-02-14T12:16:37;53.01;42.89;68.41;;
76338;Laerm;20358;50.272;19.026;2024-02-14T12:19:45;51.14;42.77;61.63;;
76338;Laerm;20358;50.272;19.026;2024-02-14T12:22:52;52.32;42.56;62.58;;
76338;Laerm;20358;50.272;19.026;2024-02-14T12:26:05;52.13;42.69;65.91;;
76338;Laerm;20358;50.272;19.026;2024-02-14T12:29:19;51.54;43.57;61.69;;
76338;Laerm;20358;50.272;19.026;2024-02-14T12:32:26;51.74;44.47;59.17;;
76338;Laerm;20358;50.272;19.026;2024-02-14T12:35:34;51.88;43.22;61.12;;
76338;Laerm;20358;50.272;19.026;2024-02-14T12:38:48;53.04;44.02;64.64;;
76338;Laerm;20358;50.272;19.026;2024-02-14T12:41:59;51.91;44.80;59.47;;
76338;Laerm;20358;50.272;19.026;2024-02-14T12:45:09;52.87;43.60;67.23;;
76338;Laerm;20358;50.272;19.026;2024-02-14T12:48:24;52.30;43.19;59.87;;
76338;Laerm;20358;50.272;19.026;2024-02-14T12:51:32;51.76;42.46;63.17;;
76338;Laerm;20358;50.272;19.026;2024-02-14T12:54:41;51.77;45.21;60.94;;
76338;Laerm;20358;50.272;19.026;2024-02-14T12:57:54;51.97;44.68;59.41;;
76338;Laerm;20358;50.272;19.026;2024-02-14T13:01:00;52.19;42.33;61.58;;
76338;Laerm;20358;50.272;19.026;2024-02-14T13:04:10;51.84;43.64;60.55;;
76338;Laerm;20358;50.272;19.026;2024-02-14T13:07:18;52.67;44.24;67.73;;
76338;Laerm;20358;50.272;19.026;2024-02-14T13:10:25;53.43;45.10;71.00;;
76338;Laerm;20358;50.272;19.026;2024-02-14T13:13:35;51.17;41.81;59.73;;
76338;Laerm;20358;50.272;19.026;2024-02-14T13:16:42;54.31;43.86;66.33;;
76338;Laerm;20358;50.272;19.026;2024-02-14T13:19:49;51.31;41.52;61.40;;
76338;Laerm;20358;50.272;19.026;2024-02-14T13:22:57;51.95;45.56;59.10;;
76338;Laerm;20358;50.272;19.026;2024-02-14T13:26:06;54.14;42.54;68.03;;
76338;Laerm;20358;50.272;19.026;2024-02-14T13:29:16;51.55;42.44;60.54;;
76338;Laerm;20358;50.272;19.026;2024-02-14T13:32:23;52.90;43.28;63.80;;
76338;Laerm;20358;50.272;19.026;2024-02-14T13:35:31;54.08;46.55;68.67;;
76338;Laerm;20358;50.272;19.026;2024-02-14T13:38:41;53.14;43.81;66.30;;
76338;Laerm;20358;50.272;19.026;2024-02-14T13:41:50;54.51;44.60;68.17;;
76338;Laerm;20358;50.272;19.026;2024-02-14T13:45:06;54.52;45.48;66.12;;
76338;Laerm;20358;50.272;19.026;2024-02-14T13:48:17;53.28;43.55;67.24;;
76338;Laerm;20358;50.272;19.026;2024-02-14T13:51:24;55.58;45.87;72.63;;
76338;Laerm;20358;50.272;19.026;2024-02-14T13:54:32;53.11;45.34;65.15;;
76338;Laerm;20358;50.272;19.026;2024-02-14T13:57:40;55.30;48.73;63.06;;
76338;Laerm;20358;50.272;19.026;2024-02-14T14:00:52;53.55;45.10;67.68;;
76338;Laerm;20358;50.272;19.026;2024-02-14T14:03:59;53.82;46.98;68.68;;
76338;Laerm;20358;50.272;19.026;2024-02-14T14:07:09;55.07;47.40;70.41;;
76338;Laerm;20358;50.272;19.026;2024-02-14T14:10:15;54.64;45.82;70.07;;
76338;Laerm;20358;50.272;19.026;2024-02-14T14:13:24;52.73;46.67;68.80;;
76338;Laerm;20358;50.272;19.026;2024-02-14T14:16:37;52.04;44.65;72.09;;
76338;Laerm;20358;50.272;19.026;2024-02-14T14:19:57;52.66;44.46;60.70;;
76338;Laerm;20358;50.272;19.026;2024-02-14T14:23:08;53.00;44.37;64.20;;
76338;Laerm;20358;50.272;19.026;2024-02-14T14:26:18;54.68;45.07;70.07;;
76338;Laerm;20358;50.272;19.026;2024-02-14T14:29:25;55.07;43.33;64.81;;
76338;Laerm;20358;50.272;19.026;2024-02-14T14:32:36;53.73;43.41;63.88;;
76338;Laerm;20358;50.272;19.026;2024-02-14T14:35:44;51.48;44.51;60.02;;
76338;Laerm;20358;50.272;19.026;2024-02-14T14:38:54;54.36;44.00;67.08;;
76338;Laerm;20358;50.272;19.026;2024-02-14T14:42:01;53.03;43.75;64.62;;
76338;Laerm;20358;50.272;19.026;2024-02-14T14:45:09;53.74;43.75;62.75;;
76338;Laerm;20358;50.272;19.026;2024-02-14T14:48:18;52.15;44.37;62.16;;
76338;Laerm;20358;50.272;19.026;2024-02-14T14:51:27;53.79;44.88;67.24;;
76338;Laerm;20358;50.272;19.026;2024-02-14T14:54:34;53.30;45.00;62.99;;
76338;Laerm;20358;50.272;19.026;2024-02-14T14:57:42;52.85;45.40;61.12;;
76338;Laerm;20358;50.272;19.026;2024-02-14T15:00:49;54.06;45.51;65.03;;
76338;Laerm;20358;50.272;19.026;2024-02-14T15:04:01;53.88;45.42;67.13;;
76338;Laerm;20358;50.272;19.026;2024-02-14T15:07:12;53.07;43.61;61.47;;
76338;Laerm;20358;50.272;19.026;2024-02-14T15:10:20;52.73;44.02;61.64;;
76338;Laerm;20358;50.272;19.026;2024-02-14T15:13:34;53.73;44.43;63.33;;
76338;Laerm;20358;50.272;19.026;2024-02-14T15:16:43;53.32;45.25;62.98;;
76338;Laerm;20358;50.272;19.026;2024-02-14T15:19:53;53.23;43.30;65.05;;
76338;Laerm;20358;50.272;19.026;2024-02-14T15:23:00;52.35;44.90;62.72;;
76338;Laerm;20358;50.272;19.026;2024-02-14T15:26:07;54.10;47.33;67.42;;
76338;Laerm;20358;50.272;19.026;2024-02-14T15:29:17;52.01;42.86;66.51;;
76338;Laerm;20358;50.272;19.026;2024-02-14T15:32:37;52.72;45.58;60.49;;
76338;Laerm;20358;50.272;19.026;2024-02-14T15:36:00;53.18;44.40;67.70;;
76338;Laerm;20358;50.272;19.026;2024-02-14T15:39:07;54.89;46.27;72.90;;
76338;Laerm;20358;50.272;19.026;2024-02-14T15:42:17;53.16;45.24;67.14;;
76338;Laerm;20358;50.272;19.026;2024-02-14T15:45:25;52.29;42.90;61.72;;
76338;Laerm;20358;50.272;19.026;2024-02-14T15:48:33;52.99;44.35;59.06;;
76338;Laerm;20358;50.272;19.026;2024-02-14T15:51:43;52.97;43.00;61.88;;
76338;Laerm;20358;50.272;19.026;2024-02-14T15:54:53;53.15;42.09;63.90;;
76338;Laerm;20358;50.272;19.026;2024-02-14T15:58:02;53.20;46.63;62.88;;
76338;Laerm;20358;50.272;19.026;2024-02-14T16:01:13;51.72;41.53;64.23;;
76338;Laerm;20358;50.272;19.026;2024-02-14T16:04:37;52.64;43.27;63.98;;
76338;Laerm;20358;50.272;19.026;2024-02-14T16:08:01;56.55;44.85;75.57;;
76338;Laerm;20358;50.272;19.026;2024-02-14T16:11:14;52.54;43.38;60.65;;
76338;Laerm;20358;50.272;19.026;2024-02-14T16:14:33;52.98;43.87;64.02;;
76338;Laerm;20358;50.272;19.026;2024-02-14T16:18:04;52.05;43.01;59.60;;
76338;Laerm;20358;50.272;19.026;2024-02-14T16:21:26;51.82;43.59;61.94;;
76338;Laerm;20358;50.272;19.026;2024-02-14T16:25:12;51.99;43.28;67.14;;
76338;Laerm;20358;50.272;19.026;2024-02-14T16:28:36;52.70;43.57;66.11;;
76338;Laerm;20358;50.272;19.026;2024-02-14T16:32:12;51.82;42.69;62.37;;
76338;Laerm;20358;50.272;19.026;2024-02-14T16:35:32;52.91;45.57;60.14;;
76338;Laerm;20358;50.272;19.026;2024-02-14T16:38:49;51.37;43.21;61.21;;
76338;Laerm;20358;50.272;19.026;2024-02-14T16:42:08;54.17;43.64;65.02;;
76338;Laerm;20358;50.272;19.026;2024-02-14T16:45:19;52.51;45.08;61.08;;
76338;Laerm;20358;50.272;19.026;2024-02-14T16:48:37;52.11;44.54;61.98;;
76338;Laerm;20358;50.272;19.026;2024-02-14T16:52:00;52.22;43.50;59.48;;
76338;Laerm;20358;50.272;19.026;2024-02-14T16:55:20;52.81;44.22;64.86;;
76338;Laerm;20358;50.272;19.026;2024-02-14T16:58:40;52.52;42.99;63.87;;
76338;Laerm;20358;50.272;19.026;2024-02-14T17:02:04;52.25;40.87;66.36;;
76338;Laerm;20358;50.272;19.026;2024-02-14T17:05:24;53.14;41.51;67.85;;
76338;Laerm;20358;50.272;19.026;2024-02-14T17:08:51;52.58;44.26;60.38;;
76338;Laerm;20358;50.272;19.026;2024-02-14T17:12:18;53.24;45.22;63.69;;
76338;Laerm;20358;50.272;19.026;2024-02-14T17:15:41;51.65;43.82;58.85;;
76338;Laerm;20358;50.272;19.026;2024-02-14T17:18:48;51.49;42.82;59.25;;
76338;Laerm;20358;50.272;19.026;2024-02-14T17:21:56;52.66;45.38;61.45;;
76338;Laerm;20358;50.272;19.026;2024-02-14T17:25:05;51.57;43.31;67.32;;
76338;Laerm;20358;50.272;19.026;2024-02-14T17:28:15;52.32;44.91;60.83;;
76338;Laerm;20358;50.272;19.026;2024-02-14T17:31:24;51.66;43.47;60.58;;
76338;Laerm;20358;50.272;19.026;2024-02-14T17:34:32;51.65;43.02;62.82;;
76338;Laerm;20358;50.272;19.026;2024-02-14T17:37:42;51.88;44.59;60.71;;
76338;Laerm;20358;50.272;19.026;2024-02-14T17:40:53;51.28;43.08;63.67;;
76338;Laerm;20358;50.272;19.026;2024-02-14T17:44:01;51.92;43.39;63.31;;
76338;Laerm;20358;50.272;19.026;2024-02-14T17:47:15;51.54;43.29;59.97;;
76338;Laerm;20358;50.272;19.026;2024-02-14T17:50:28;50.28;42.73;61.13;;
76338;Laerm;20358;50.272;19.026;2024-02-14T17:53:50;49.78;41.22;60.00;;
76338;Laerm;20358;50.272;19.026;2024-02-14T17:56:59;51.07;40.62;62.13;;
76338;Laerm;20358;50.272;19.026;2024-02-14T18:00:14;51.88;42.92;60.58;;
76338;Laerm;20358;50.272;19.026;2024-02-14T18:03:28;51.58;41.48;63.47;;
76338;Laerm;20358;50.272;19.026;2024-02-14T18:06:51;50.60;41.97;61.41;;
76338;Laerm;20358;50.272;19.026;2024-02-14T18:10:44;50.74;41.00;60.70;;
76338;Laerm;20358;50.272;19.026;2024-02-14T18:14:22;51.70;43.41;60.32;;
76338;Laerm;20358;50.272;19.026;2024-02-14T18:17:45;51.71;42.47;68.55;;
76338;Laerm;20358;50.272;19.026;2024-02-14T18:21:08;52.48;43.69;62.57;;
76338;Laerm;20358;50.272;19.026;2024-02-14T18:24:28;51.54;42.83;60.34;;
76338;Laerm;20358;50.272;19.026;2024-02-14T18:27:39;51.56;43.48;61.40;;
76338;Laerm;20358;50.272;19.026;2024-02-14T18:30:55;51.66;42.48;65.40;;
76338;Laerm;20358;50.272;19.026;2024-02-14T18:34:20;51.88;41.95;61.93;;
76338;Laerm;20358;50.272;19.026;2024-02-14T18:37:52;51.29;42.45;60.04;;
76338;Laerm;20358;50.272;19.026;2024-02-14T18:41:10;51.83;42.18;61.24;;
76338;Laerm;20358;50.272;19.026;2024-02-14T18:44:32;50.63;41.36;61.47;;
76338;Laerm;20358;50.272;19.026;2024-02-14T18:47:54;50.35;41.57;60.18;;
76338;Laerm;20358;50.272;19.026;2024-02-14T18:51:11;50.47;41.66;61.43;;